Pensacola, FL

11:22 AM CDT on August 31, 2016 (GMT -0500)
Pensacola Naval Air Station | | Change Station

Elev 30 ft 30.36 °N, 87.32 °W | Updated 26 minutes ago

Scattered Clouds
Scattered Clouds
87 °F
Feels Like 94 °F
N
13
Wind Variable Wind from ENE

Today
High -- | Low -- °F
--% Chance of Precip.
Yesterday
High -- | Low -- °F
Precip. -- in
Pressure 29.89 in
Visibility 10.0 miles
Clouds Scattered Clouds 2700 ft
Heat Index 94 °F
Dew Point 72 °F
Humidity 61%
Rainfall 0.00 in
Snow Depth Not available.
6:25 AM 7:12 PM
Waning Crescent, 1% visible
METAR KNPA 311556Z 07011KT 10SM SCT027 31/22 A2989 RMK AO2 SLP122 T03060222
Pressure 29.89 in
Visibility 10.0 miles
Clouds Scattered Clouds 2700 ft
Heat Index 94 °F
Dew Point 72 °F
Humidity 61%
Rainfall 0.00 in
Snow Depth Not available.
6:25 AM 7:12 PM
Waning Crescent, 1% visible
METAR KNPA 311556Z 07011KT 10SM SCT027 31/22 A2989 RMK AO2 SLP122 T03060222

10-Day Weather Forecast

Almanac

Astronomy

Aug. 31, 2016 Rise Set
Actual Time
Civil Twilight
Nautical Twilight
Astronomical Twilight
Moon
Length of Visible Light
Length of Day
Tomorrow will be .
, % of the Moon is Illuminated

Today's Extremes

State Highs State Lows

Community

WunderPhotos

Upload Photos

1,936,109 photos uploaded!

WunderBlog® & News

Nearby

Air Quality

  Air Quality AQ Index Pollutant
Not available.

Snow Depth

Station Depth Elevation

Earthquake Activity

City Distance Mag. Time & Date
Minimum magnitude displayed is 2.5.

Coastal Water Temperatures

Place Temperature

Stations

Nearby Weather Stations

Station Location Temp. Windchill Dew Point Humidity Wind Precip. Elev Updated Type
                   

Watches & Warnings

There are currently no watches in effect.